Time;durP1;ratioP1;P1;durP2;ratioP2;P2;SDS_P1;SDS_P2;PMS_P1;PMS_P2;Temp;Humidity;BMP_temperature;BMP_pressure;BME280_temperature;BME280_humidity;BME280_pressure;Samples;Min_cycle;Max_cycle;Signal;HPM_P1;HPM_P2
2021/11/07 00:02:04;;;;;;;19.60;12.40;;;;;;;6.60;66.84;100678.45;139402;1189;108418;-82
2021/11/07 00:05:23;;;;;;;22.40;13.20;;;;;;;6.63;66.54;100672.42;139405;1193;108361;-81
2021/11/07 00:08:44;;;;;;;19.80;13.00;;;;;;;6.67;66.66;100659.92;139370;1190;108428;-81
2021/11/07 00:11:54;;;;;;;21.70;13.80;;;;;;;6.67;66.63;100657.46;139377;1190;108685;-82
2021/11/07 00:14:59;;;;;;;21.10;13.50;;;;;;;6.65;66.43;100651.36;139465;1190;108410;-80
2021/11/07 00:18:10;;;;;;;20.00;12.70;;;;;;;6.62;66.72;100650.96;139331;1191;108456;-82
2021/11/07 00:21:19;;;;;;;19.30;12.80;;;;;;;6.59;66.68;100653.10;139417;1190;108615;-79
2021/11/07 00:24:31;;;;;;;20.90;13.50;;;;;;;6.53;66.81;100652.66;139480;1189;108308;-82
2021/11/07 00:27:43;;;;;;;21.10;13.90;;;;;;;6.47;67.08;100647.84;139427;1180;107386;-81
2021/11/07 00:30:53;;;;;;;;;;;;;;;6.41;66.92;100645.49;139410;1190;108498;-80
2021/11/07 00:37:26;;;;;;;22.40;13.10;;;;;;;6.29;66.88;100640.51;139415;1190;108333;-81
2021/11/07 00:40:38;;;;;;;19.30;12.10;;;;;;;6.24;67.28;100636.52;139456;1190;108535;-82
2021/11/07 00:43:49;;;;;;;21.00;12.30;;;;;;;6.22;67.40;100635.75;139401;1190;107867;-83
2021/11/07 00:46:58;;;;;;;22.00;13.70;;;;;;;6.26;67.43;100636.02;139454;1189;108290;-81
2021/11/07 00:50:07;;;;;;;19.00;12.50;;;;;;;6.29;67.51;100637.33;139198;1190;108306;-80
2021/11/07 00:53:24;;;;;;;21.50;14.00;;;;;;;6.30;67.08;100626.48;139355;1191;108367;-82
2021/11/07 00:56:36;;;;;;;22.20;13.80;;;;;;;6.28;67.14;100623.96;139407;1190;108741;-86
2021/11/07 00:59:49;;;;;;;20.70;13.30;;;;;;;6.27;67.39;100613.31;139451;1190;108366;-87
2021/11/07 01:02:58;;;;;;;19.80;13.10;;;;;;;6.22;67.07;100601.31;139486;1190;107384;-80
2021/11/07 01:06:04;;;;;;;19.60;12.90;;;;;;;6.17;67.08;100600.96;139713;1189;108504;-85
2021/11/07 01:09:09;;;;;;;20.10;13.40;;;;;;;6.12;67.16;100594.85;139682;1189;107485;-84
2021/11/07 01:12:15;;;;;;;20.10;12.00;;;;;;;6.05;67.35;100588.64;139642;1189;108283;-84
2021/11/07 01:15:21;;;;;;;22.00;12.30;;;;;;;6.00;67.41;100581.61;139262;1190;108396;-84
2021/11/07 01:18:27;;;;;;;20.50;12.00;;;;;;;5.99;67.54;100582.77;139487;1190;108415;-83
2021/11/07 01:21:36;;;;;;;21.60;13.20;;;;;;;6.00;67.40;100577.55;139418;1189;108453;-84
2021/11/07 01:24:50;;;;;;;20.90;13.30;;;;;;;6.01;67.40;100571.65;139517;1190;108540;-82
2021/11/07 01:27:57;;;;;;;22.20;13.50;;;;;;;6.00;67.34;100566.20;139309;1189;108557;-81
2021/11/07 01:31:03;;;;;;;21.30;14.00;;;;;;;5.97;67.38;100564.35;139336;1190;108609;-79
2021/11/07 01:34:15;;;;;;;21.70;13.70;;;;;;;5.95;67.49;100556.55;139057;1190;108433;-83
2021/11/07 01:37:22;;;;;;;22.90;14.40;;;;;;;5.91;67.55;100553.45;139329;1180;108609;-75
2021/11/07 01:40:30;;;;;;;22.60;14.30;;;;;;;5.85;67.31;100554.98;139274;1191;108462;-76
2021/11/07 01:43:36;;;;;;;23.00;14.10;;;;;;;5.75;67.49;100551.67;139344;1191;107379;-79
2021/11/07 01:46:46;;;;;;;20.80;13.60;;;;;;;5.67;67.59;100539.52;139209;1189;108534;-79
2021/11/07 01:49:52;;;;;;;20.90;12.40;;;;;;;5.61;67.64;100537.17;139284;1191;108585;-77
2021/11/07 01:53:05;;;;;;;23.70;13.50;;;;;;;5.56;67.57;100530.90;139286;1190;108595;-78
2021/11/07 01:56:14;;;;;;;22.60;13.60;;;;;;;5.53;67.51;100525.93;139341;1190;108498;-78
2021/11/07 01:59:20;;;;;;;21.20;13.40;;;;;;;5.53;67.57;100519.96;139242;1190;108490;-77
2021/11/07 02:02:28;;;;;;;23.60;13.30;;;;;;;5.53;67.54;100520.14;139284;1190;108496;-78
2021/11/07 02:05:33;;;;;;;21.80;13.30;;;;;;;5.52;67.57;100514.55;139311;1190;108527;-76
2021/11/07 02:08:38;;;;;;;22.60;14.20;;;;;;;5.51;67.52;100511.10;139276;1190;108386;-79
2021/11/07 02:11:44;;;;;;;21.20;13.30;;;;;;;5.49;67.57;100504.66;139270;1190;108429;-78
2021/11/07 02:14:50;;;;;;;21.30;13.50;;;;;;;5.47;67.51;100495.48;139222;1193;108365;-79
2021/11/07 02:17:55;;;;;;;21.50;13.90;;;;;;;5.41;67.52;100489.91;139280;1190;108568;-79
2021/11/07 02:21:04;;;;;;;24.10;13.40;;;;;;;5.36;67.66;100484.30;139290;1196;108295;-79
2021/11/07 02:24:14;;;;;;;25.00;14.20;;;;;;;5.32;67.67;100478.95;139309;1196;108363;-79
2021/11/07 02:27:19;;;;;;;23.40;13.90;;;;;;;5.28;67.52;100469.91;139271;1189;107905;-78
2021/11/07 02:30:25;;;;;;;23.20;14.00;;;;;;;5.25;67.77;100462.21;139287;1189;108391;-79
2021/11/07 02:33:31;;;;;;;21.10;13.20;;;;;;;5.24;67.75;100459.84;139252;1190;108390;-80
2021/11/07 02:36:37;;;;;;;23.50;13.70;;;;;;;5.24;67.69;100463.34;139228;1190;108868;-79
2021/11/07 02:39:42;;;;;;;24.00;14.20;;;;;;;5.26;67.63;100465.34;139280;1180;108454;-79
2021/11/07 02:42:49;;;;;;;22.30;13.80;;;;;;;5.24;67.74;100463.69;139298;1190;108503;-79
2021/11/07 02:45:54;;;;;;;24.30;14.00;;;;;;;5.21;67.68;100463.05;139287;1191;107292;-80
2021/11/07 02:49:02;;;;;;;23.40;14.00;;;;;;;5.17;67.89;100464.91;139226;1190;108330;-81
2021/11/07 02:52:10;;;;;;;22.30;14.00;;;;;;;5.15;67.83;100460.84;139222;1190;108625;-81
2021/11/07 02:55:15;;;;;;;22.40;14.00;;;;;;;5.13;67.88;100445.31;139200;1190;108557;-80
2021/11/07 02:58:21;;;;;;;22.50;13.90;;;;;;;5.09;67.69;100435.83;139339;1190;108482;-80
2021/11/07 03:01:27;;;;;;;23.00;14.20;;;;;;;5.04;67.71;100430.57;139294;1189;108673;-82
2021/11/07 03:04:34;;;;;;;23.20;14.30;;;;;;;4.99;67.87;100429.94;139425;1189;108818;-80
2021/11/07 03:07:42;;;;;;;21.30;13.30;;;;;;;4.92;68.00;100426.01;139265;1190;108315;-82
2021/11/07 03:10:47;;;;;;;23.60;12.70;;;;;;;4.89;67.96;100422.33;139320;1190;108426;-81
2021/11/07 03:13:53;;;;;;;19.50;11.70;;;;;;;4.89;67.91;100417.44;139268;1190;108565;-80
2021/11/07 03:17:00;;;;;;;23.20;13.50;;;;;;;4.93;68.07;100409.86;139234;1190;108237;-80
2021/11/07 03:20:07;;;;;;;22.00;13.60;;;;;;;4.98;67.91;100393.32;139369;1190;108551;-80
2021/11/07 03:23:19;;;;;;;21.90;13.20;;;;;;;5.01;68.11;100376.48;139311;1190;108463;-80
2021/11/07 03:26:27;;;;;;;22.20;13.70;;;;;;;5.04;67.95;100376.65;139265;1189;108249;-80
2021/11/07 03:29:33;;;;;;;20.40;12.60;;;;;;;5.03;68.03;100377.77;139264;1190;108533;-81
2021/11/07 03:32:40;;;;;;;22.20;13.90;;;;;;;5.02;68.00;100375.60;139284;1189;106861;-81
2021/11/07 03:35:47;;;;;;;22.20;13.60;;;;;;;4.99;68.19;100366.58;139340;1190;108458;-84
2021/11/07 03:38:55;;;;;;;24.10;13.80;;;;;;;4.95;68.14;100362.66;139299;1196;108254;-79
2021/11/07 03:42:01;;;;;;;22.50;13.90;;;;;;;4.93;68.15;100363.53;139262;1189;108369;-78
2021/11/07 03:45:09;;;;;;;23.50;13.30;;;;;;;4.88;68.24;100364.98;139305;1190;108578;-81
2021/11/07 03:48:15;;;;;;;22.20;12.80;;;;;;;4.84;68.18;100358.90;139308;1190;106681;-81
2021/11/07 03:51:23;;;;;;;23.10;12.80;;;;;;;4.81;68.35;100352.26;139372;1190;108572;-80
2021/11/07 03:54:30;;;;;;;23.70;13.20;;;;;;;4.84;68.38;100346.96;139299;1190;108575;-80
2021/11/07 03:57:35;;;;;;;24.00;14.70;;;;;;;4.85;68.37;100346.63;139349;1190;108530;-81
2021/11/07 04:00:41;;;;;;;22.80;14.00;;;;;;;4.83;68.49;100341.87;139314;1189;108473;-80
2021/11/07 04:03:47;;;;;;;24.00;14.50;;;;;;;4.83;68.39;100334.70;139412;1193;108556;-81
2021/11/07 04:06:52;;;;;;;22.80;14.70;;;;;;;4.80;68.41;100337.05;139392;1190;108756;-79
2021/11/07 04:09:58;;;;;;;25.30;15.10;;;;;;;4.76;68.55;100337.15;139252;1190;108439;-79
2021/11/07 04:13:05;;;;;;;25.00;14.50;;;;;;;4.70;68.55;100333.32;139243;1191;109276;-79
2021/11/07 04:16:12;;;;;;;26.10;16.00;;;;;;;4.64;68.63;100323.04;139268;1190;108560;-81
2021/11/07 04:19:18;;;;;;;26.00;14.20;;;;;;;4.58;68.69;100317.65;139298;1189;108487;-81
2021/11/07 04:22:24;;;;;;;27.00;14.80;;;;;;;4.55;68.75;100314.38;139388;1189;108452;-80
2021/11/07 04:25:30;;;;;;;25.50;13.20;;;;;;;4.53;68.82;100312.36;139309;1190;108367;-79
2021/11/07 04:28:36;;;;;;;24.90;14.80;;;;;;;4.54;68.74;100303.86;140249;1190;108567;-80
2021/11/07 04:31:41;;;;;;;26.50;15.50;;;;;;;4.55;68.74;100291.08;139723;1190;108564;-81
2021/11/07 04:34:47;;;;;;;26.20;15.50;;;;;;;4.57;68.74;100289.02;139128;1190;108429;-82
2021/11/07 04:37:52;;;;;;;25.10;15.10;;;;;;;4.56;68.71;100282.19;139417;1189;108484;-81
2021/11/07 04:40:58;;;;;;;28.80;16.00;;;;;;;4.53;68.81;100281.52;139365;1190;108391;-82
2021/11/07 04:44:03;;;;;;;26.50;15.60;;;;;;;4.50;68.88;100274.88;139487;1196;108513;-80
2021/11/07 04:47:09;;;;;;;25.70;15.20;;;;;;;4.47;68.93;100273.34;140090;1183;108455;-80
2021/11/07 04:50:17;;;;;;;24.30;14.80;;;;;;;4.42;68.85;100266.36;139397;1193;108383;-82
2021/11/07 04:53:23;;;;;;;29.70;16.50;;;;;;;4.35;69.02;100264.55;139296;1189;108691;-81
2021/11/07 04:56:29;;;;;;;27.80;15.70;;;;;;;4.31;68.96;100260.09;139383;1190;107274;-82
2021/11/07 04:59:35;;;;;;;22.90;13.50;;;;;;;4.30;69.04;100254.38;139350;1190;108378;-80
2021/11/07 05:02:40;;;;;;;25.90;15.30;;;;;;;4.31;69.21;100254.45;139332;1189;108509;-81
2021/11/07 05:05:46;;;;;;;26.20;16.10;;;;;;;4.35;69.29;100244.87;139431;1190;108535;-84
2021/11/07 05:08:51;;;;;;;27.50;16.30;;;;;;;4.38;69.38;100237.62;139360;1189;108407;-80
2021/11/07 05:11:57;;;;;;;27.20;16.70;;;;;;;4.36;69.41;100231.02;139160;1194;108557;-80
2021/11/07 05:15:03;;;;;;;30.10;17.70;;;;;;;4.34;69.44;100218.64;139301;1189;108131;-80
2021/11/07 05:18:09;;;;;;;29.00;17.70;;;;;;;4.32;69.40;100211.22;139306;1190;108827;-80
2021/11/07 05:21:15;;;;;;;29.30;17.80;;;;;;;4.28;69.48;100203.25;139313;1196;108462;-84
2021/11/07 05:24:21;;;;;;;33.60;18.50;;;;;;;4.24;69.47;100200.95;139340;1190;108410;-78
2021/11/07 05:27:26;;;;;;;30.20;17.40;;;;;;;4.23;69.70;100199.10;139273;1190;107480;-78
2021/11/07 05:30:32;;;;;;;25.30;14.60;;;;;;;4.24;69.65;100209.54;139267;1190;109660;-80
2021/11/07 05:33:37;;;;;;;29.10;17.10;;;;;;;4.28;69.66;100212.73;139232;1190;108530;-80
2021/11/07 05:36:44;;;;;;;28.90;16.80;;;;;;;4.31;69.68;100213.04;139284;1190;108564;-80
2021/11/07 05:39:50;;;;;;;29.00;17.10;;;;;;;4.36;69.66;100209.70;139289;1180;108650;-81
2021/11/07 05:42:55;;;;;;;27.60;16.80;;;;;;;4.38;69.67;100207.14;139401;1190;108478;-78
2021/11/07 05:46:01;;;;;;;27.30;16.80;;;;;;;4.38;69.76;100206.25;139303;1190;107427;-78
2021/11/07 05:49:07;;;;;;;32.90;17.90;;;;;;;4.39;69.77;100196.98;139375;1190;108377;-76
2021/11/07 05:52:12;;;;;;;28.20;16.80;;;;;;;4.40;69.82;100188.84;139536;1190;107411;-79
2021/11/07 05:55:18;;;;;;;29.60;17.60;;;;;;;4.39;69.88;100187.52;139333;1190;106806;-80
2021/11/07 05:58:24;;;;;;;30.20;17.00;;;;;;;4.38;69.86;100186.91;139439;1189;108570;-80
2021/11/07 06:01:29;;;;;;;24.90;14.80;;;;;;;4.43;69.85;100181.23;139300;1190;107414;-80
2021/11/07 06:04:35;;;;;;;28.00;16.90;;;;;;;4.54;70.03;100183.69;139346;1190;108549;-80
2021/11/07 06:07:40;;;;;;;26.70;15.80;;;;;;;4.67;69.82;100182.93;139362;1190;108487;-78
2021/11/07 06:10:46;;;;;;;26.00;16.60;;;;;;;4.79;69.84;100182.34;139251;1190;108520;-80
2021/11/07 06:13:51;;;;;;;25.90;16.10;;;;;;;4.90;69.84;100176.54;139432;1180;108440;-80
2021/11/07 06:16:57;;;;;;;24.90;15.60;;;;;;;5.04;69.90;100167.57;139463;1190;107870;-81
2021/11/07 06:20:03;;;;;;;25.20;15.40;;;;;;;5.16;69.78;100162.59;139393;1189;107163;-81
2021/11/07 06:23:10;;;;;;;24.50;15.50;;;;;;;5.25;69.75;100157.95;139270;1190;108582;-80
2021/11/07 06:26:16;;;;;;;24.10;14.20;;;;;;;5.34;69.67;100156.93;139304;1190;108364;-77
2021/11/07 06:29:22;;;;;;;24.60;14.00;;;;;;;5.39;69.54;100154.36;139262;1190;108531;-79
2021/11/07 06:32:27;;;;;;;21.40;12.60;;;;;;;5.45;69.76;100152.45;139266;1190;109347;-79
2021/11/07 06:35:33;;;;;;;22.70;13.80;;;;;;;5.56;69.82;100154.13;139302;1189;108556;-79
2021/11/07 06:38:38;;;;;;;22.60;13.90;;;;;;;5.64;69.57;100147.27;139336;1190;108878;-78
2021/11/07 06:41:44;;;;;;;21.80;13.80;;;;;;;5.74;69.62;100139.59;139340;1190;108585;-76
2021/11/07 06:44:51;;;;;;;21.90;13.80;;;;;;;5.83;69.63;100136.71;139379;1189;105869;-79
2021/11/07 06:47:56;;;;;;;23.40;14.80;;;;;;;5.89;69.39;100128.79;139531;1190;108537;-77
2021/11/07 06:51:02;;;;;;;24.30;15.60;;;;;;;5.93;69.43;100125.19;139382;1190;108408;-79
2021/11/07 06:54:09;;;;;;;21.10;14.20;;;;;;;5.93;69.41;100124.27;139317;1189;108395;-79
2021/11/07 06:57:15;;;;;;;23.70;14.10;;;;;;;5.95;69.48;100118.52;139293;1190;108380;-77
2021/11/07 07:00:24;;;;;;;19.50;13.00;;;;;;;6.01;69.33;100113.75;139258;1190;108485;-80
2021/11/07 07:03:30;;;;;;;30.50;17.60;;;;;;;6.10;69.31;100102.25;139407;1191;108399;-76
2021/11/07 07:06:36;;;;;;;24.90;14.60;;;;;;;6.22;69.17;100098.04;139306;1189;108418;-74
2021/11/07 07:09:45;;;;;;;23.20;15.20;;;;;;;6.33;69.03;100098.92;139342;1190;108359;-75
2021/11/07 07:12:56;;;;;;;33.50;21.20;;;;;;;6.37;68.95;100094.16;139209;1190;108431;-78
2021/11/07 07:16:10;;;;;;;37.10;20.20;;;;;;;6.40;68.90;100092.10;139214;1189;108523;-73
2021/11/07 07:26:36;;;;;;;24.70;13.90;;;;;;;6.44;68.97;100075.83;136645;1210;635744;-73
2021/11/07 07:30:07;;;;;;;56.40;30.50;;;;;;;6.43;68.88;100061.27;138566;1202;107419;-74
2021/11/07 07:33:25;;;;;;;61.10;27.60;;;;;;;6.43;68.59;100061.27;138576;1189;108678;-75
2021/11/07 07:36:31;;;;;;;82.20;35.70;;;;;;;6.48;68.68;100055.40;138589;1197;109205;-76
2021/11/07 07:39:36;;;;;;;35.50;17.40;;;;;;;6.57;68.77;100048.45;138494;1196;108579;-76
2021/11/07 07:42:42;;;;;;;157.40;61.40;;;;;;;6.71;68.55;100041.05;138530;1202;108542;-75
2021/11/07 07:45:47;;;;;;;29.10;15.70;;;;;;;6.87;68.44;100031.33;139000;1191;108473;-75
2021/11/07 07:48:54;;;;;;;21.10;13.60;;;;;;;7.06;68.41;100038.65;138939;1199;108577;-74
2021/11/07 07:52:00;;;;;;;47.10;24.50;;;;;;;7.27;68.68;100035.21;138907;1193;109178;-74
2021/11/07 07:55:08;;;;;;;48.30;25.50;;;;;;;7.49;68.46;100038.95;138998;1193;108741;-75
2021/11/07 07:58:13;;;;;;;21.00;13.00;;;;;;;7.71;68.16;100028.65;139006;1193;109164;-74
2021/11/07 08:01:19;;;;;;;20.40;12.40;;;;;;;7.88;68.03;100018.73;138990;1193;108700;-76
2021/11/07 08:04:25;;;;;;;24.90;16.00;;;;;;;8.00;67.61;100008.80;139162;1193;107420;-71
2021/11/07 08:07:30;;;;;;;33.10;19.20;;;;;;;8.02;67.32;99999.73;139185;1192;108484;-76
2021/11/07 08:10:36;;;;;;;36.10;21.90;;;;;;;7.96;67.46;99986.15;138959;1192;108231;-74
2021/11/07 08:13:41;;;;;;;41.80;24.20;;;;;;;7.91;67.28;99980.25;138968;1199;108568;-74
2021/11/07 08:16:47;;;;;;;32.10;19.90;;;;;;;7.91;67.31;99981.65;138963;1193;108648;-75
2021/11/07 08:19:52;;;;;;;46.40;24.80;;;;;;;7.95;67.36;99973.65;139298;1193;108325;-74
2021/11/07 08:22:58;;;;;;;31.00;17.40;;;;;;;7.95;67.36;99964.98;139184;1194;108053;-81
2021/11/07 08:26:04;;;;;;;22.70;16.50;;;;;;;8.02;67.49;99959.74;139025;1192;106458;-83
2021/11/07 08:29:13;;;;;;;17.90;11.50;;;;;;;8.08;67.59;99956.30;139424;1193;107519;-78
2021/11/07 08:32:19;;;;;;;28.70;17.80;;;;;;;8.14;67.36;99953.80;139276;1193;108093;-82
2021/11/07 08:35:24;;;;;;;51.00;32.60;;;;;;;8.20;67.19;99949.33;139035;1193;108530;-78
2021/11/07 08:38:35;;;;;;;44.00;27.00;;;;;;;8.25;66.77;99952.02;139254;1192;108214;-90
2021/11/07 08:41:46;;;;;;;67.10;39.50;;;;;;;8.25;66.76;99944.58;139251;1193;109000;-86
2021/11/07 09:02:01;;;;;;;16.80;11.60;;;;;;;8.39;66.66;99918.84;139110;1193;108479;-82
2021/11/07 09:05:11;;;;;;;16.60;10.60;;;;;;;8.46;66.41;99924.41;139309;1193;107641;-81
2021/11/07 09:08:18;;;;;;;15.70;10.60;;;;;;;8.53;66.29;99911.49;139145;1192;108472;-82
2021/11/07 09:11:24;;;;;;;15.60;10.40;;;;;;;8.58;66.26;99901.64;139074;1192;107668;-76
2021/11/07 09:14:35;;;;;;;14.60;10.40;;;;;;;8.60;66.48;99900.30;139162;1199;107261;-79
2021/11/07 09:17:41;;;;;;;24.70;16.70;;;;;;;8.65;66.32;99906.94;138892;1193;108484;-86
2021/11/07 09:20:54;;;;;;;16.40;10.50;;;;;;;8.68;66.10;99900.64;138951;1192;107431;-86
2021/11/07 09:24:04;;;;;;;14.70;9.90;;;;;;;8.73;66.20;99888.08;139341;1193;108402;-83
2021/11/07 09:27:16;;;;;;;14.80;10.30;;;;;;;8.78;65.98;99881.98;139383;1191;107445;-87
2021/11/07 09:30:27;;;;;;;14.70;9.70;;;;;;;8.81;66.03;99874.20;139418;1199;108492;-83
2021/11/07 09:33:42;;;;;;;14.30;9.40;;;;;;;8.87;65.94;99864.20;139175;1192;108605;-87
2021/11/07 09:36:51;;;;;;;14.90;9.30;;;;;;;8.91;65.73;99857.27;139331;1193;108350;-83
2021/11/07 09:39:59;;;;;;;12.80;8.80;;;;;;;8.94;65.80;99854.23;139715;1192;108606;-83
2021/11/07 09:43:23;;;;;;;26.10;16.70;;;;;;;9.00;65.65;99850.52;139539;1192;107265;-83
2021/11/07 09:46:38;;;;;;;28.30;16.00;;;;;;;9.07;65.50;99843.83;139148;1192;107777;-85
2021/11/07 09:49:46;;;;;;;101.00;51.90;;;;;;;9.14;65.61;99843.95;139209;1192;107445;-88
2021/11/07 09:52:54;;;;;;;24.80;14.10;;;;;;;9.21;65.38;99836.73;139153;1192;108256;-89
2021/11/07 09:56:00;;;;;;;15.50;10.10;;;;;;;9.25;65.04;99829.34;139211;1193;108239;-89
2021/11/07 09:59:05;;;;;;;15.60;10.80;;;;;;;9.27;65.20;99823.86;139302;1193;108416;-81
2021/11/07 10:02:12;;;;;;;44.90;28.30;;;;;;;9.31;65.35;99820.89;139367;1193;108402;-88
2021/11/07 10:05:19;;;;;;;36.10;24.80;;;;;;;9.35;65.15;99810.91;139211;1193;107474;-84
2021/11/07 10:08:26;;;;;;;27.60;19.10;;;;;;;9.38;64.92;99800.54;139156;1193;108390;-81
2021/11/07 10:11:33;;;;;;;84.40;52.20;;;;;;;9.42;64.92;99798.83;139074;1196;108442;-82
2021/11/07 10:14:45;;;;;;;21.80;14.50;;;;;;;9.47;64.59;99789.66;139087;1193;108587;-81
2021/11/07 10:17:52;;;;;;;;;;;;;;;9.52;64.09;99773.78;139156;1192;108518;-84
2021/11/07 10:21:00;;;;;;;53.30;33.80;;;;;;;9.54;64.10;99758.95;139026;1193;107463;-83
2021/11/07 10:24:09;;;;;;;40.40;27.80;;;;;;;9.58;63.75;99763.02;139113;1193;107426;-83
2021/11/07 10:27:16;;;;;;;45.10;29.60;;;;;;;9.64;63.94;99762.40;139111;1193;108569;-82
2021/11/07 10:30:24;;;;;;;50.80;34.20;;;;;;;9.67;63.53;99760.48;139120;1193;108464;-82
2021/11/07 10:40:40;;;;;;;20.70;13.10;;;;;;;9.93;63.35;99739.13;139101;1193;108523;-82
2021/11/07 10:43:54;;;;;;;15.40;9.80;;;;;;;10.00;62.92;99737.09;139066;1193;108172;-83
2021/11/07 10:47:22;;;;;;;50.10;31.40;;;;;;;10.08;62.86;99730.27;139031;1193;108461;-77
2021/11/07 10:53:56;;;;;;;26.20;16.00;;;;;;;10.27;62.25;99717.22;139116;1191;107123;-79
2021/11/07 10:57:20;;;;;;;38.50;21.30;;;;;;;10.37;62.08;99713.66;139005;1193;108400;-78
2021/11/07 11:00:29;;;;;;;18.30;11.20;;;;;;;10.47;62.22;99704.10;139057;1192;107454;-78
2021/11/07 11:03:43;;;;;;;33.30;20.80;;;;;;;10.54;62.11;99699.94;139066;1193;108531;-84
2021/11/07 11:06:57;;;;;;;18.50;11.70;;;;;;;10.56;62.18;99697.01;139306;1190;107502;-82
2021/11/07 11:10:18;;;;;;;26.40;17.30;;;;;;;10.56;62.06;99694.73;139311;1189;107608;-80
2021/11/07 11:13:34;;;;;;;30.50;19.50;;;;;;;10.58;62.25;99690.44;139294;1189;108492;-83
2021/11/07 11:16:48;;;;;;;25.40;15.70;;;;;;;10.59;61.85;99691.34;139357;1190;107473;-79
2021/11/07 11:20:15;;;;;;;27.50;18.00;;;;;;;10.55;61.52;99675.13;139318;1189;108137;-82
2021/11/07 11:23:48;;;;;;;84.00;53.60;;;;;;;10.48;61.60;99672.27;139231;1190;108363;-82
2021/11/07 11:30:32;;;;;;;15.80;11.10;;;;;;;10.36;61.89;99669.63;139234;1190;107236;-79
2021/11/07 11:33:41;;;;;;;14.80;11.40;;;;;;;10.30;61.74;99669.11;139268;1189;108369;-84
2021/11/07 11:36:52;;;;;;;12.90;10.10;;;;;;;10.22;61.17;99667.55;139299;1193;107463;-84
2021/11/07 11:40:03;;;;;;;25.60;19.30;;;;;;;10.16;61.37;99660.92;139278;1189;108494;-83
2021/11/07 11:43:11;;;;;;;22.20;16.30;;;;;;;10.14;61.81;99658.85;139275;1190;108481;-82
2021/11/07 11:46:25;;;;;;;33.00;24.60;;;;;;;10.10;61.79;99648.04;139306;1189;105482;-79
2021/11/07 11:50:02;;;;;;;35.50;25.30;;;;;;;10.06;61.49;99645.52;139674;1189;108420;-80
2021/11/07 11:53:23;;;;;;;21.70;15.30;;;;;;;10.00;61.65;99635.67;139268;1190;108322;-79
2021/11/07 11:56:33;;;;;;;182.60;76.70;;;;;;;9.96;62.00;99640.46;139090;1189;108626;-81
2021/11/07 11:59:46;;;;;;;371.40;183.30;;;;;;;9.95;61.92;99643.83;139266;1190;108513;-81
2021/11/07 12:02:57;;;;;;;249.00;120.50;;;;;;;9.94;61.77;99636.49;139356;1189;107438;-82
2021/11/07 12:06:20;;;;;;;30.70;16.30;;;;;;;9.91;61.38;99630.02;139343;1189;107375;-78
2021/11/07 12:09:39;;;;;;;;;;;;;;;9.86;61.17;99623.86;139440;1189;107713;-79
2021/11/07 12:12:50;;;;;;;20.10;14.80;;;;;;;9.82;61.17;99623.16;139273;1190;108531;-80
2021/11/07 12:16:00;;;;;;;10.50;7.60;;;;;;;9.80;61.13;99624.41;139309;1189;108451;-87
2021/11/07 12:19:10;;;;;;;23.90;21.20;;;;;;;9.77;60.77;99627.53;139261;1193;108625;-86
2021/11/07 12:22:17;;;;;;;15.40;12.50;;;;;;;9.73;60.81;99629.86;139346;1190;108471;-78
2021/11/07 12:25:29;;;;;;;18.70;13.50;;;;;;;9.69;61.26;99637.69;139361;1190;108872;-79
2021/11/07 12:28:44;;;;;;;;;;;;;;;9.67;60.88;99636.90;139392;1190;108613;-86
2021/11/07 12:32:02;;;;;;;46.40;31.30;;;;;;;9.65;61.01;99633.01;139262;1190;108340;-82
2021/11/07 12:35:15;;;;;;;22.50;15.60;;;;;;;9.62;61.13;99625.66;139139;1190;108582;-84
2021/11/07 12:42:15;;;;;;;61.00;42.00;;;;;;;9.63;61.10;99616.15;139530;1190;108419;-86
2021/11/07 12:45:35;;;;;;;27.20;17.00;;;;;;;9.61;60.70;99616.11;139494;1190;107359;-85
2021/11/07 12:48:46;;;;;;;33.70;18.90;;;;;;;9.60;60.75;99613.41;139683;1190;108415;-83
2021/11/07 12:51:54;;;;;;;51.80;30.20;;;;;;;9.60;60.71;99611.41;139436;1190;108462;-79
2021/11/07 12:55:00;;;;;;;20.50;12.70;;;;;;;9.59;60.12;99608.92;139505;1190;108386;-76
2021/11/07 12:58:06;;;;;;;49.40;31.30;;;;;;;9.58;60.36;99600.69;139436;1190;107239;-79
2021/11/07 13:01:11;;;;;;;29.20;19.40;;;;;;;9.58;60.45;99598.36;139979;1190;108515;-82
2021/11/07 13:04:17;;;;;;;53.10;38.10;;;;;;;9.58;60.50;99596.05;139584;1190;108498;-81
2021/11/07 13:07:25;;;;;;;24.10;12.80;;;;;;;9.58;60.46;99594.66;139341;1190;108407;-82
2021/11/07 13:10:39;;;;;;;15.60;9.80;;;;;;;9.54;60.16;99601.78;139298;1190;107544;-82
2021/11/07 13:13:51;;;;;;;26.70;16.00;;;;;;;9.50;60.24;99608.83;139259;1190;108506;-82
2021/11/07 13:17:33;;;;;;;15.30;10.20;;;;;;;9.46;60.22;99604.28;139328;1184;108600;-82
2021/11/07 13:20:49;;;;;;;26.00;18.30;;;;;;;9.42;60.38;99606.73;139313;1184;108450;-76
2021/11/07 13:24:13;;;;;;;37.10;23.30;;;;;;;9.41;60.73;99605.27;139400;1190;108399;-82
2021/11/07 13:27:22;;;;;;;41.90;24.10;;;;;;;9.41;60.97;99602.08;139481;1190;108633;-83
2021/11/07 13:30:31;;;;;;;19.30;12.60;;;;;;;9.38;61.07;99601.67;139380;1190;108381;-84
2021/11/07 13:33:41;;;;;;;14.30;8.40;;;;;;;9.34;61.31;99602.25;139360;1190;108685;-83
2021/11/07 13:36:47;;;;;;;21.20;9.80;;;;;;;9.30;61.48;99597.91;139262;1190;108486;-83
2021/11/07 13:39:53;;;;;;;18.00;13.90;;;;;;;9.21;61.63;99596.44;139258;1190;108382;-81
2021/11/07 13:43:05;;;;;;;13.40;10.30;;;;;;;9.14;61.62;99600.20;139241;1190;108405;-82
2021/11/07 13:46:12;;;;;;;13.40;8.90;;;;;;;9.11;61.92;99591.63;139248;1190;108663;-82
2021/11/07 13:49:18;;;;;;;41.10;30.30;;;;;;;9.09;61.90;99593.07;139617;1190;108547;-84
2021/11/07 13:52:23;;;;;;;54.90;40.00;;;;;;;9.07;61.88;99602.52;139321;1190;106183;-83
2021/11/07 13:55:31;;;;;;;74.80;47.90;;;;;;;9.06;62.42;99601.21;139337;1190;108560;-81
2021/11/07 13:58:40;;;;;;;21.10;14.00;;;;;;;8.99;62.67;99600.60;139223;1190;108523;-83
2021/11/07 14:01:46;;;;;;;23.20;15.70;;;;;;;8.97;63.24;99598.57;139132;1190;108399;-85
2021/11/07 14:04:53;;;;;;;47.00;40.00;;;;;;;8.96;63.71;99596.17;139278;1190;108419;-84
2021/11/07 14:08:02;;;;;;;26.40;21.90;;;;;;;8.96;63.60;99598.96;139224;1191;108480;-85
2021/11/07 14:11:08;;;;;;;20.70;15.30;;;;;;;8.99;63.84;99602.23;139241;1190;108863;-83
2021/11/07 14:14:16;;;;;;;18.60;14.50;;;;;;;9.00;63.83;99598.79;139213;1190;108678;-86
2021/11/07 14:17:27;;;;;;;22.50;18.60;;;;;;;8.98;63.65;99599.81;139435;1190;108372;-84
2021/11/07 14:20:41;;;;;;;17.60;14.00;;;;;;;8.98;63.76;99599.11;139386;1184;108270;-82
2021/11/07 14:23:52;;;;;;;16.70;12.90;;;;;;;8.96;63.63;99589.89;139216;1190;108466;-78
2021/11/07 14:27:03;;;;;;;14.10;8.50;;;;;;;8.95;63.49;99587.55;139307;1190;108597;-80
2021/11/07 14:30:15;;;;;;;11.30;7.80;;;;;;;8.92;63.70;99583.41;139165;1190;108409;-84
2021/11/07 14:33:29;;;;;;;12.00;7.60;;;;;;;8.89;63.74;99584.77;140047;1190;107341;-86
2021/11/07 14:36:45;;;;;;;10.00;7.20;;;;;;;8.86;64.06;99572.17;139757;1190;108346;-86
2021/11/07 14:39:58;;;;;;;12.00;8.00;;;;;;;8.85;63.98;99572.99;139597;1190;108281;-80
2021/11/07 14:43:08;;;;;;;122.50;81.40;;;;;;;8.87;63.86;99567.16;139339;1197;106269;-80
2021/11/07 14:46:33;;;;;;;31.90;21.50;;;;;;;8.91;64.01;99566.72;139374;1190;108427;-85
2021/11/07 14:53:09;;;;;;;85.40;53.50;;;;;;;8.98;64.08;99569.03;139584;1190;108603;-80
2021/11/07 14:56:21;;;;;;;25.10;15.40;;;;;;;8.98;63.89;99567.74;139264;1190;108374;-81
2021/11/07 14:59:33;;;;;;;103.50;63.20;;;;;;;8.94;63.98;99566.36;139101;1190;108441;-81
2021/11/07 15:02:45;;;;;;;69.90;38.80;;;;;;;8.92;64.03;99567.34;139309;1184;108555;-82
2021/11/07 15:06:18;;;;;;;25.90;17.00;;;;;;;8.87;64.11;99568.17;139486;1184;108481;-77